Fernwood, Pennsylvania
Current Conditions -  °F | °C
As of 10:54 AM on Thursday 27 Nov 2014 (Local Time) from KPHL Reporting Station
Broken Clouds Broken Clouds  
Wind Chill: 33°   Ceiling: 7500
Heat Index: 39°   Visibility: 10mi
Dew Point: 29°   Wind: 8mph
Humidity: 67%   Direction: 300°WNW
Pressure: 30.04"   Gusts: NA
Location:  39.9372°N, 75.2636°W
Report Text: KPHL 271554Z 30007KT 10SM FEW019 SCT029 BKN075 04/M02 A3004 RMK AO2 SLP172 T00391017 $
Loading
Personal Weather Stations






























Interactive Weather Map New forecast layout! Learn more

10-Day Weather Forecast

Advertisements
Track Severe Weather on mobile